sensor_id;sensor_type;location;lat;lon;timestamp;P1;durP1;ratioP1;P2;durP2;ratioP2
47009;SDS011;59230;54.164;-3.124;2023-12-14T00:02:11;29.35;;;12.07;;
47009;SDS011;59230;54.164;-3.124;2023-12-14T00:07:29;25.05;;;11.10;;
47009;SDS011;59230;54.164;-3.124;2023-12-14T00:09:56;32.20;;;11.70;;
47009;SDS011;59230;54.164;-3.124;2023-12-14T00:12:23;26.42;;;11.25;;
47009;SDS011;59230;54.164;-3.124;2023-12-14T00:14:49;29.48;;;11.98;;
47009;SDS011;59230;54.164;-3.124;2023-12-14T00:17:16;27.63;;;11.65;;
47009;SDS011;59230;54.164;-3.124;2023-12-14T00:19:41;33.42;;;13.35;;
47009;SDS011;59230;54.164;-3.124;2023-12-14T00:22:07;29.48;;;11.55;;
47009;SDS011;59230;54.164;-3.124;2023-12-14T00:24:36;28.52;;;10.65;;
47009;SDS011;59230;54.164;-3.124;2023-12-14T00:27:01;26.98;;;10.57;;
47009;SDS011;59230;54.164;-3.124;2023-12-14T00:29:26;24.17;;;11.05;;
47009;SDS011;59230;54.164;-3.124;2023-12-14T00:31:52;26.15;;;11.18;;
47009;SDS011;59230;54.164;-3.124;2023-12-14T00:34:18;23.85;;;9.80;;
47009;SDS011;59230;54.164;-3.124;2023-12-14T00:36:44;27.50;;;10.77;;
47009;SDS011;59230;54.164;-3.124;2023-12-14T00:39:11;30.30;;;10.85;;
47009;SDS011;59230;54.164;-3.124;2023-12-14T00:41:40;27.27;;;10.35;;
47009;SDS011;59230;54.164;-3.124;2023-12-14T00:44:07;25.92;;;9.27;;
47009;SDS011;59230;54.164;-3.124;2023-12-14T00:46:33;26.25;;;9.23;;
47009;SDS011;59230;54.164;-3.124;2023-12-14T00:48:58;26.05;;;10.27;;
47009;SDS011;59230;54.164;-3.124;2023-12-14T00:51:27;27.25;;;9.95;;
47009;SDS011;59230;54.164;-3.124;2023-12-14T00:53:53;28.83;;;9.82;;
47009;SDS011;59230;54.164;-3.124;2023-12-14T00:56:20;25.27;;;11.13;;
47009;SDS011;59230;54.164;-3.124;2023-12-14T00:58:46;24.42;;;10.60;;
47009;SDS011;59230;54.164;-3.124;2023-12-14T01:01:13;24.05;;;9.73;;
47009;SDS011;59230;54.164;-3.124;2023-12-14T01:03:39;26.58;;;10.48;;
47009;SDS011;59230;54.164;-3.124;2023-12-14T01:06:06;30.45;;;9.93;;
47009;SDS011;59230;54.164;-3.124;2023-12-14T01:08:33;31.70;;;9.25;;
47009;SDS011;59230;54.164;-3.124;2023-12-14T01:10:59;30.48;;;10.00;;
47009;SDS011;59230;54.164;-3.124;2023-12-14T01:13:25;24.73;;;9.80;;
47009;SDS011;59230;54.164;-3.124;2023-12-14T01:15:50;24.95;;;9.07;;
47009;SDS011;59230;54.164;-3.124;2023-12-14T01:18:15;23.10;;;9.32;;
47009;SDS011;59230;54.164;-3.124;2023-12-14T01:20:42;21.95;;;8.38;;
47009;SDS011;59230;54.164;-3.124;2023-12-14T01:23:13;21.35;;;9.15;;
47009;SDS011;59230;54.164;-3.124;2023-12-14T01:25:40;22.60;;;9.43;;
47009;SDS011;59230;54.164;-3.124;2023-12-14T01:28:08;31.17;;;9.10;;
47009;SDS011;59230;54.164;-3.124;2023-12-14T01:30:35;26.80;;;9.90;;
47009;SDS011;59230;54.164;-3.124;2023-12-14T01:33:02;26.23;;;10.15;;
47009;SDS011;59230;54.164;-3.124;2023-12-14T01:35:38;24.75;;;8.70;;
47009;SDS011;59230;54.164;-3.124;2023-12-14T01:38:05;24.67;;;9.05;;
47009;SDS011;59230;54.164;-3.124;2023-12-14T01:40:33;21.38;;;9.35;;
47009;SDS011;59230;54.164;-3.124;2023-12-14T01:43:09;24.13;;;9.07;;
47009;SDS011;59230;54.164;-3.124;2023-12-14T01:45:38;21.15;;;9.38;;
47009;SDS011;59230;54.164;-3.124;2023-12-14T01:48:04;29.85;;;10.27;;
47009;SDS011;59230;54.164;-3.124;2023-12-14T01:50:30;24.85;;;10.05;;
47009;SDS011;59230;54.164;-3.124;2023-12-14T01:52:59;35.15;;;11.88;;
47009;SDS011;59230;54.164;-3.124;2023-12-14T01:55:25;34.78;;;10.98;;
47009;SDS011;59230;54.164;-3.124;2023-12-14T01:57:54;25.30;;;11.32;;
47009;SDS011;59230;54.164;-3.124;2023-12-14T02:00:29;29.38;;;11.60;;
47009;SDS011;59230;54.164;-3.124;2023-12-14T02:03:16;25.98;;;11.23;;
47009;SDS011;59230;54.164;-3.124;2023-12-14T02:05:41;26.98;;;10.35;;
47009;SDS011;59230;54.164;-3.124;2023-12-14T02:08:08;26.20;;;11.02;;
47009;SDS011;59230;54.164;-3.124;2023-12-14T02:10:35;28.58;;;11.45;;
47009;SDS011;59230;54.164;-3.124;2023-12-14T02:13:02;25.67;;;10.48;;
47009;SDS011;59230;54.164;-3.124;2023-12-14T02:15:28;30.08;;;11.95;;
47009;SDS011;59230;54.164;-3.124;2023-12-14T02:17:54;26.73;;;9.88;;
47009;SDS011;59230;54.164;-3.124;2023-12-14T02:20:21;22.92;;;9.27;;
47009;SDS011;59230;54.164;-3.124;2023-12-14T02:22:57;24.83;;;8.82;;
47009;SDS011;59230;54.164;-3.124;2023-12-14T02:25:25;25.30;;;9.15;;
47009;SDS011;59230;54.164;-3.124;2023-12-14T02:27:51;28.73;;;10.32;;
47009;SDS011;59230;54.164;-3.124;2023-12-14T02:30:18;31.20;;;9.48;;
47009;SDS011;59230;54.164;-3.124;2023-12-14T02:32:44;27.42;;;10.73;;
47009;SDS011;59230;54.164;-3.124;2023-12-14T02:35:10;22.92;;;8.80;;
47009;SDS011;59230;54.164;-3.124;2023-12-14T02:37:36;29.33;;;9.57;;
47009;SDS011;59230;54.164;-3.124;2023-12-14T02:40:06;21.55;;;9.30;;
47009;SDS011;59230;54.164;-3.124;2023-12-14T02:42:33;28.58;;;9.38;;
47009;SDS011;59230;54.164;-3.124;2023-12-14T02:45:00;31.27;;;8.82;;
47009;SDS011;59230;54.164;-3.124;2023-12-14T02:47:27;26.10;;;10.07;;
47009;SDS011;59230;54.164;-3.124;2023-12-14T02:49:54;23.48;;;8.88;;
47009;SDS011;59230;54.164;-3.124;2023-12-14T02:52:21;23.33;;;8.85;;
47009;SDS011;59230;54.164;-3.124;2023-12-14T02:54:49;28.80;;;9.63;;
47009;SDS011;59230;54.164;-3.124;2023-12-14T02:57:16;24.95;;;9.30;;
47009;SDS011;59230;54.164;-3.124;2023-12-14T02:59:43;24.55;;;9.07;;
47009;SDS011;59230;54.164;-3.124;2023-12-14T03:02:09;24.05;;;9.13;;
47009;SDS011;59230;54.164;-3.124;2023-12-14T03:04:40;21.27;;;8.55;;
47009;SDS011;59230;54.164;-3.124;2023-12-14T03:07:09;26.92;;;8.27;;
47009;SDS011;59230;54.164;-3.124;2023-12-14T03:09:38;27.20;;;7.78;;
47009;SDS011;59230;54.164;-3.124;2023-12-14T03:12:08;24.63;;;8.77;;
47009;SDS011;59230;54.164;-3.124;2023-12-14T03:14:34;32.65;;;8.85;;
47009;SDS011;59230;54.164;-3.124;2023-12-14T03:17:01;23.23;;;8.77;;
47009;SDS011;59230;54.164;-3.124;2023-12-14T03:19:29;28.65;;;10.38;;
47009;SDS011;59230;54.164;-3.124;2023-12-14T03:21:55;31.85;;;9.15;;
47009;SDS011;59230;54.164;-3.124;2023-12-14T03:24:22;26.27;;;8.48;;
47009;SDS011;59230;54.164;-3.124;2023-12-14T03:26:48;22.35;;;8.50;;
47009;SDS011;59230;54.164;-3.124;2023-12-14T03:29:13;32.33;;;8.82;;
47009;SDS011;59230;54.164;-3.124;2023-12-14T03:31:40;26.30;;;10.05;;
47009;SDS011;59230;54.164;-3.124;2023-12-14T03:34:07;35.60;;;9.85;;
47009;SDS011;59230;54.164;-3.124;2023-12-14T03:36:34;29.90;;;10.05;;
47009;SDS011;59230;54.164;-3.124;2023-12-14T03:39:01;33.30;;;9.02;;
47009;SDS011;59230;54.164;-3.124;2023-12-14T03:41:27;29.27;;;8.63;;
47009;SDS011;59230;54.164;-3.124;2023-12-14T03:43:52;30.95;;;8.82;;
47009;SDS011;59230;54.164;-3.124;2023-12-14T03:46:19;37.13;;;9.98;;
47009;SDS011;59230;54.164;-3.124;2023-12-14T03:48:46;29.38;;;8.98;;
47009;SDS011;59230;54.164;-3.124;2023-12-14T03:51:12;29.17;;;10.02;;
47009;SDS011;59230;54.164;-3.124;2023-12-14T03:53:39;30.58;;;10.55;;
47009;SDS011;59230;54.164;-3.124;2023-12-14T03:56:05;42.20;;;11.98;;
47009;SDS011;59230;54.164;-3.124;2023-12-14T03:58:34;37.10;;;12.35;;
47009;SDS011;59230;54.164;-3.124;2023-12-14T04:01:02;39.95;;;12.63;;
47009;SDS011;59230;54.164;-3.124;2023-12-14T04:03:28;45.08;;;12.35;;
47009;SDS011;59230;54.164;-3.124;2023-12-14T04:05:53;33.58;;;13.35;;
47009;SDS011;59230;54.164;-3.124;2023-12-14T04:08:19;40.15;;;13.80;;
47009;SDS011;59230;54.164;-3.124;2023-12-14T04:10:46;53.75;;;15.95;;
47009;SDS011;59230;54.164;-3.124;2023-12-14T04:13:11;51.05;;;14.18;;
47009;SDS011;59230;54.164;-3.124;2023-12-14T04:15:37;46.83;;;14.63;;
47009;SDS011;59230;54.164;-3.124;2023-12-14T04:18:04;49.70;;;15.77;;
47009;SDS011;59230;54.164;-3.124;2023-12-14T04:20:35;43.85;;;14.55;;
47009;SDS011;59230;54.164;-3.124;2023-12-14T04:23:01;43.28;;;14.40;;
47009;SDS011;59230;54.164;-3.124;2023-12-14T04:25:27;51.42;;;16.83;;
47009;SDS011;59230;54.164;-3.124;2023-12-14T04:27:55;48.67;;;16.52;;
47009;SDS011;59230;54.164;-3.124;2023-12-14T04:30:22;54.67;;;16.52;;
47009;SDS011;59230;54.164;-3.124;2023-12-14T04:32:50;43.25;;;15.32;;
47009;SDS011;59230;54.164;-3.124;2023-12-14T04:35:19;40.97;;;15.57;;
47009;SDS011;59230;54.164;-3.124;2023-12-14T04:37:49;46.15;;;15.93;;
47009;SDS011;59230;54.164;-3.124;2023-12-14T04:40:15;61.72;;;17.02;;
47009;SDS011;59230;54.164;-3.124;2023-12-14T04:42:43;48.50;;;15.32;;
47009;SDS011;59230;54.164;-3.124;2023-12-14T04:45:08;54.58;;;16.77;;
47009;SDS011;59230;54.164;-3.124;2023-12-14T04:47:35;51.72;;;16.80;;
47009;SDS011;59230;54.164;-3.124;2023-12-14T04:50:03;56.83;;;16.77;;
47009;SDS011;59230;54.164;-3.124;2023-12-14T04:52:29;52.22;;;17.45;;
47009;SDS011;59230;54.164;-3.124;2023-12-14T04:54:56;70.95;;;19.02;;
47009;SDS011;59230;54.164;-3.124;2023-12-14T04:57:23;53.58;;;18.05;;
47009;SDS011;59230;54.164;-3.124;2023-12-14T04:59:49;63.08;;;19.83;;
47009;SDS011;59230;54.164;-3.124;2023-12-14T05:02:15;74.50;;;20.80;;
47009;SDS011;59230;54.164;-3.124;2023-12-14T05:04:44;67.95;;;20.88;;
47009;SDS011;59230;54.164;-3.124;2023-12-14T05:07:10;72.45;;;21.70;;
47009;SDS011;59230;54.164;-3.124;2023-12-14T05:09:36;72.03;;;22.27;;
47009;SDS011;59230;54.164;-3.124;2023-12-14T05:12:02;78.75;;;23.25;;
47009;SDS011;59230;54.164;-3.124;2023-12-14T05:14:29;60.42;;;20.52;;
47009;SDS011;59230;54.164;-3.124;2023-12-14T05:16:55;66.00;;;21.98;;
47009;SDS011;59230;54.164;-3.124;2023-12-14T05:19:23;63.17;;;20.70;;
47009;SDS011;59230;54.164;-3.124;2023-12-14T05:21:50;61.75;;;21.38;;
47009;SDS011;59230;54.164;-3.124;2023-12-14T05:24:16;78.20;;;23.08;;
47009;SDS011;59230;54.164;-3.124;2023-12-14T05:26:43;62.90;;;21.35;;
47009;SDS011;59230;54.164;-3.124;2023-12-14T05:29:10;54.28;;;21.52;;
47009;SDS011;59230;54.164;-3.124;2023-12-14T05:31:36;60.97;;;22.25;;
47009;SDS011;59230;54.164;-3.124;2023-12-14T05:34:01;80.03;;;24.38;;
47009;SDS011;59230;54.164;-3.124;2023-12-14T05:36:28;73.40;;;25.80;;
47009;SDS011;59230;54.164;-3.124;2023-12-14T05:38:56;67.22;;;24.65;;
47009;SDS011;59230;54.164;-3.124;2023-12-14T05:41:23;77.65;;;24.10;;
47009;SDS011;59230;54.164;-3.124;2023-12-14T05:43:48;80.45;;;27.85;;
47009;SDS011;59230;54.164;-3.124;2023-12-14T05:46:23;85.82;;;27.45;;
47009;SDS011;59230;54.164;-3.124;2023-12-14T05:48:49;95.00;;;27.40;;
47009;SDS011;59230;54.164;-3.124;2023-12-14T05:51:25;92.88;;;28.33;;
47009;SDS011;59230;54.164;-3.124;2023-12-14T05:53:53;87.35;;;26.67;;
47009;SDS011;59230;54.164;-3.124;2023-12-14T05:56:19;97.03;;;27.85;;
47009;SDS011;59230;54.164;-3.124;2023-12-14T05:58:45;74.82;;;24.63;;
47009;SDS011;59230;54.164;-3.124;2023-12-14T06:01:11;93.35;;;27.23;;
47009;SDS011;59230;54.164;-3.124;2023-12-14T06:03:40;152.90;;;33.75;;
47009;SDS011;59230;54.164;-3.124;2023-12-14T06:06:06;95.93;;;25.27;;
47009;SDS011;59230;54.164;-3.124;2023-12-14T06:08:33;96.28;;;26.48;;
47009;SDS011;59230;54.164;-3.124;2023-12-14T06:10:58;73.65;;;24.45;;
47009;SDS011;59230;54.164;-3.124;2023-12-14T06:13:24;79.60;;;24.17;;
47009;SDS011;59230;54.164;-3.124;2023-12-14T06:15:50;101.53;;;26.30;;
47009;SDS011;59230;54.164;-3.124;2023-12-14T06:18:16;86.60;;;24.73;;
47009;SDS011;59230;54.164;-3.124;2023-12-14T06:20:45;86.80;;;23.38;;
47009;SDS011;59230;54.164;-3.124;2023-12-14T06:23:11;65.35;;;22.70;;
47009;SDS011;59230;54.164;-3.124;2023-12-14T06:25:36;64.35;;;21.50;;
47009;SDS011;59230;54.164;-3.124;2023-12-14T06:28:04;111.93;;;26.70;;
47009;SDS011;59230;54.164;-3.124;2023-12-14T06:30:30;69.63;;;21.75;;
47009;SDS011;59230;54.164;-3.124;2023-12-14T06:32:55;51.88;;;18.98;;
47009;SDS011;59230;54.164;-3.124;2023-12-14T06:35:21;45.55;;;17.48;;
47009;SDS011;59230;54.164;-3.124;2023-12-14T06:37:49;35.15;;;16.85;;
47009;SDS011;59230;54.164;-3.124;2023-12-14T06:40:16;45.85;;;18.58;;
47009;SDS011;59230;54.164;-3.124;2023-12-14T06:42:43;32.70;;;14.98;;
47009;SDS011;59230;54.164;-3.124;2023-12-14T06:45:10;54.88;;;17.05;;
47009;SDS011;59230;54.164;-3.124;2023-12-14T06:47:36;27.60;;;12.65;;
47009;SDS011;59230;54.164;-3.124;2023-12-14T06:50:08;51.67;;;15.10;;
47009;SDS011;59230;54.164;-3.124;2023-12-14T06:52:36;85.00;;;19.42;;
47009;SDS011;59230;54.164;-3.124;2023-12-14T06:55:04;84.70;;;20.38;;
47009;SDS011;59230;54.164;-3.124;2023-12-14T06:57:32;50.97;;;18.00;;
47009;SDS011;59230;54.164;-3.124;2023-12-14T06:59:58;41.28;;;16.33;;
47009;SDS011;59230;54.164;-3.124;2023-12-14T07:02:23;57.63;;;17.23;;
47009;SDS011;59230;54.164;-3.124;2023-12-14T07:04:50;42.30;;;16.63;;
47009;SDS011;59230;54.164;-3.124;2023-12-14T07:07:19;51.78;;;18.00;;
47009;SDS011;59230;54.164;-3.124;2023-12-14T07:09:48;68.78;;;20.05;;
47009;SDS011;59230;54.164;-3.124;2023-12-14T07:12:14;66.65;;;20.85;;
47009;SDS011;59230;54.164;-3.124;2023-12-14T07:14:41;135.60;;;27.20;;
47009;SDS011;59230;54.164;-3.124;2023-12-14T07:17:06;259.23;;;32.08;;
47009;SDS011;59230;54.164;-3.124;2023-12-14T07:19:32;210.65;;;30.17;;
47009;SDS011;59230;54.164;-3.124;2023-12-14T07:21:58;173.55;;;31.00;;
47009;SDS011;59230;54.164;-3.124;2023-12-14T07:24:23;116.13;;;26.40;;
47009;SDS011;59230;54.164;-3.124;2023-12-14T07:26:49;196.27;;;33.25;;
47009;SDS011;59230;54.164;-3.124;2023-12-14T07:29:17;235.07;;;34.80;;
47009;SDS011;59230;54.164;-3.124;2023-12-14T07:31:43;206.18;;;32.60;;
47009;SDS011;59230;54.164;-3.124;2023-12-14T07:34:08;953.67;;;65.25;;
47009;SDS011;59230;54.164;-3.124;2023-12-14T07:36:34;71.50;;;22.48;;
47009;SDS011;59230;54.164;-3.124;2023-12-14T07:39:02;42.53;;;16.92;;
47009;SDS011;59230;54.164;-3.124;2023-12-14T07:41:31;42.00;;;17.65;;
47009;SDS011;59230;54.164;-3.124;2023-12-14T07:43:58;39.97;;;16.80;;
47009;SDS011;59230;54.164;-3.124;2023-12-14T07:46:26;40.67;;;17.73;;
47009;SDS011;59230;54.164;-3.124;2023-12-14T07:48:52;41.00;;;16.75;;
47009;SDS011;59230;54.164;-3.124;2023-12-14T07:51:18;34.00;;;17.05;;
47009;SDS011;59230;54.164;-3.124;2023-12-14T07:53:44;87.90;;;38.35;;
47009;SDS011;59230;54.164;-3.124;2023-12-14T07:56:13;50.50;;;20.52;;
47009;SDS011;59230;54.164;-3.124;2023-12-14T07:58:40;48.35;;;19.05;;
47009;SDS011;59230;54.164;-3.124;2023-12-14T08:01:06;130.48;;;22.63;;
47009;SDS011;59230;54.164;-3.124;2023-12-14T08:03:32;61.38;;;25.63;;
47009;SDS011;59230;54.164;-3.124;2023-12-14T08:05:57;43.47;;;20.55;;
47009;SDS011;59230;54.164;-3.124;2023-12-14T08:08:24;217.13;;;127.90;;
47009;SDS011;59230;54.164;-3.124;2023-12-14T08:10:51;76.15;;;36.78;;
47009;SDS011;59230;54.164;-3.124;2023-12-14T08:13:16;91.25;;;42.00;;
47009;SDS011;59230;54.164;-3.124;2023-12-14T08:15:43;69.32;;;33.58;;
47009;SDS011;59230;54.164;-3.124;2023-12-14T08:18:10;54.03;;;26.17;;
47009;SDS011;59230;54.164;-3.124;2023-12-14T08:20:37;89.88;;;28.92;;
47009;SDS011;59230;54.164;-3.124;2023-12-14T08:23:02;56.97;;;23.98;;
47009;SDS011;59230;54.164;-3.124;2023-12-14T08:25:28;76.15;;;24.08;;
47009;SDS011;59230;54.164;-3.124;2023-12-14T08:27:54;55.25;;;22.90;;
47009;SDS011;59230;54.164;-3.124;2023-12-14T08:30:20;90.50;;;26.65;;
47009;SDS011;59230;54.164;-3.124;2023-12-14T08:32:47;118.03;;;34.17;;
47009;SDS011;59230;54.164;-3.124;2023-12-14T08:35:14;145.73;;;34.28;;
47009;SDS011;59230;54.164;-3.124;2023-12-14T08:37:41;142.30;;;33.88;;
47009;SDS011;59230;54.164;-3.124;2023-12-14T08:40:07;84.80;;;26.95;;
47009;SDS011;59230;54.164;-3.124;2023-12-14T08:42:36;106.45;;;27.65;;
47009;SDS011;59230;54.164;-3.124;2023-12-14T08:45:06;77.15;;;25.25;;
47009;SDS011;59230;54.164;-3.124;2023-12-14T08:47:36;110.22;;;29.38;;
47009;SDS011;59230;54.164;-3.124;2023-12-14T08:50:03;116.97;;;28.25;;
47009;SDS011;59230;54.164;-3.124;2023-12-14T08:52:32;112.97;;;28.67;;
47009;SDS011;59230;54.164;-3.124;2023-12-14T08:54:58;100.63;;;27.63;;
47009;SDS011;59230;54.164;-3.124;2023-12-14T08:57:25;115.45;;;30.75;;
47009;SDS011;59230;54.164;-3.124;2023-12-14T08:59:51;72.35;;;30.73;;
47009;SDS011;59230;54.164;-3.124;2023-12-14T09:02:17;93.15;;;30.48;;
47009;SDS011;59230;54.164;-3.124;2023-12-14T09:04:43;107.00;;;32.90;;
47009;SDS011;59230;54.164;-3.124;2023-12-14T09:07:09;114.65;;;33.85;;
47009;SDS011;59230;54.164;-3.124;2023-12-14T09:09:36;185.60;;;37.10;;
47009;SDS011;59230;54.164;-3.124;2023-12-14T09:12:03;153.43;;;35.85;;
47009;SDS011;59230;54.164;-3.124;2023-12-14T09:14:29;94.28;;;28.23;;
47009;SDS011;59230;54.164;-3.124;2023-12-14T09:16:55;105.05;;;30.20;;
47009;SDS011;59230;54.164;-3.124;2023-12-14T09:19:23;128.40;;;30.25;;
47009;SDS011;59230;54.164;-3.124;2023-12-14T09:21:49;80.20;;;26.13;;
47009;SDS011;59230;54.164;-3.124;2023-12-14T09:24:16;82.28;;;25.77;;
47009;SDS011;59230;54.164;-3.124;2023-12-14T09:26:42;91.30;;;24.35;;
47009;SDS011;59230;54.164;-3.124;2023-12-14T09:29:08;115.63;;;25.92;;
47009;SDS011;59230;54.164;-3.124;2023-12-14T09:31:33;133.23;;;27.35;;
47009;SDS011;59230;54.164;-3.124;2023-12-14T09:33:59;115.45;;;28.75;;
47009;SDS011;59230;54.164;-3.124;2023-12-14T09:36:24;113.35;;;29.58;;
47009;SDS011;59230;54.164;-3.124;2023-12-14T09:38:51;125.93;;;31.10;;
47009;SDS011;59230;54.164;-3.124;2023-12-14T09:41:16;145.43;;;31.65;;
47009;SDS011;59230;54.164;-3.124;2023-12-14T09:43:43;109.30;;;29.23;;
47009;SDS011;59230;54.164;-3.124;2023-12-14T09:46:11;97.35;;;27.85;;
47009;SDS011;59230;54.164;-3.124;2023-12-14T09:48:39;198.13;;;36.10;;
47009;SDS011;59230;54.164;-3.124;2023-12-14T09:51:06;97.20;;;29.13;;
47009;SDS011;59230;54.164;-3.124;2023-12-14T09:53:33;245.52;;;40.90;;
47009;SDS011;59230;54.164;-3.124;2023-12-14T09:56:00;142.55;;;32.47;;
47009;SDS011;59230;54.164;-3.124;2023-12-14T09:58:27;169.20;;;35.67;;
47009;SDS011;59230;54.164;-3.124;2023-12-14T10:00:54;172.52;;;37.30;;
47009;SDS011;59230;54.164;-3.124;2023-12-14T10:03:25;159.98;;;38.60;;
47009;SDS011;59230;54.164;-3.124;2023-12-14T10:05:54;190.60;;;35.70;;
47009;SDS011;59230;54.164;-3.124;2023-12-14T10:08:22;141.88;;;31.77;;
47009;SDS011;59230;54.164;-3.124;2023-12-14T10:10:50;182.32;;;30.15;;
47009;SDS011;59230;54.164;-3.124;2023-12-14T10:13:20;203.32;;;29.90;;
47009;SDS011;59230;54.164;-3.124;2023-12-14T10:15:47;345.25;;;41.00;;
47009;SDS011;59230;54.164;-3.124;2023-12-14T10:18:24;290.23;;;38.65;;
47009;SDS011;59230;54.164;-3.124;2023-12-14T10:20:50;260.80;;;38.08;;
47009;SDS011;59230;54.164;-3.124;2023-12-14T10:23:17;166.73;;;30.10;;
47009;SDS011;59230;54.164;-3.124;2023-12-14T10:25:43;121.43;;;23.15;;
47009;SDS011;59230;54.164;-3.124;2023-12-14T10:28:12;92.45;;;21.52;;
47009;SDS011;59230;54.164;-3.124;2023-12-14T10:30:45;95.22;;;18.17;;
47009;SDS011;59230;54.164;-3.124;2023-12-14T10:33:13;100.53;;;16.15;;
47009;SDS011;59230;54.164;-3.124;2023-12-14T10:35:41;107.50;;;14.57;;
47009;SDS011;59230;54.164;-3.124;2023-12-14T10:38:07;106.47;;;13.43;;
47009;SDS011;59230;54.164;-3.124;2023-12-14T10:40:35;120.60;;;15.63;;
47009;SDS011;59230;54.164;-3.124;2023-12-14T10:43:07;130.73;;;15.02;;
47009;SDS011;59230;54.164;-3.124;2023-12-14T10:45:37;140.73;;;14.07;;
47009;SDS011;59230;54.164;-3.124;2023-12-14T10:48:04;130.45;;;15.02;;
47009;SDS011;59230;54.164;-3.124;2023-12-14T10:50:30;127.50;;;13.38;;
47009;SDS011;59230;54.164;-3.124;2023-12-14T10:52:56;142.23;;;13.45;;
47009;SDS011;59230;54.164;-3.124;2023-12-14T10:58:03;140.10;;;14.60;;
47009;SDS011;59230;54.164;-3.124;2023-12-14T11:00:31;123.25;;;11.85;;
47009;SDS011;59230;54.164;-3.124;2023-12-14T11:02:59;132.82;;;12.85;;
47009;SDS011;59230;54.164;-3.124;2023-12-14T11:05:27;115.10;;;11.77;;
47009;SDS011;59230;54.164;-3.124;2023-12-14T11:08:06;116.28;;;12.27;;
47009;SDS011;59230;54.164;-3.124;2023-12-14T11:13:03;92.75;;;10.98;;
47009;SDS011;59230;54.164;-3.124;2023-12-14T11:15:37;97.82;;;11.52;;
47009;SDS011;59230;54.164;-3.124;2023-12-14T11:23:15;93.50;;;11.02;;
47009;SDS011;59230;54.164;-3.124;2023-12-14T11:26:06;99.57;;;12.02;;
47009;SDS011;59230;54.164;-3.124;2023-12-14T11:28:38;108.80;;;11.20;;
47009;SDS011;59230;54.164;-3.124;2023-12-14T11:31:12;98.05;;;11.10;;
47009;SDS011;59230;54.164;-3.124;2023-12-14T11:33:38;96.63;;;11.48;;
47009;SDS011;59230;54.164;-3.124;2023-12-14T11:36:03;102.18;;;11.50;;
47009;SDS011;59230;54.164;-3.124;2023-12-14T11:38:31;112.07;;;11.73;;
47009;SDS011;59230;54.164;-3.124;2023-12-14T11:40:59;88.47;;;12.35;;
47009;SDS011;59230;54.164;-3.124;2023-12-14T11:43:25;93.95;;;11.30;;
47009;SDS011;59230;54.164;-3.124;2023-12-14T11:45:51;90.18;;;10.95;;
47009;SDS011;59230;54.164;-3.124;2023-12-14T11:48:17;91.13;;;10.38;;
47009;SDS011;59230;54.164;-3.124;2023-12-14T11:50:47;82.93;;;9.90;;
47009;SDS011;59230;54.164;-3.124;2023-12-14T11:53:15;80.65;;;10.70;;
47009;SDS011;59230;54.164;-3.124;2023-12-14T11:55:41;68.45;;;9.93;;
47009;SDS011;59230;54.164;-3.124;2023-12-14T11:58:13;84.82;;;10.90;;
47009;SDS011;59230;54.164;-3.124;2023-12-14T12:00:41;84.00;;;10.80;;
47009;SDS011;59230;54.164;-3.124;2023-12-14T12:03:16;101.28;;;11.82;;
47009;SDS011;59230;54.164;-3.124;2023-12-14T12:05:46;71.55;;;9.93;;
47009;SDS011;59230;54.164;-3.124;2023-12-14T12:08:20;91.97;;;10.27;;
47009;SDS011;59230;54.164;-3.124;2023-12-14T12:10:48;69.63;;;9.00;;
47009;SDS011;59230;54.164;-3.124;2023-12-14T12:13:15;82.30;;;9.43;;
47009;SDS011;59230;54.164;-3.124;2023-12-14T12:15:42;77.03;;;9.80;;
47009;SDS011;59230;54.164;-3.124;2023-12-14T12:18:09;77.75;;;10.13;;
47009;SDS011;59230;54.164;-3.124;2023-12-14T12:20:36;81.10;;;11.77;;
47009;SDS011;59230;54.164;-3.124;2023-12-14T12:23:02;68.68;;;9.25;;
47009;SDS011;59230;54.164;-3.124;2023-12-14T12:25:29;72.25;;;9.35;;
47009;SDS011;59230;54.164;-3.124;2023-12-14T12:28:00;81.60;;;9.32;;
47009;SDS011;59230;54.164;-3.124;2023-12-14T12:30:31;63.47;;;9.63;;
47009;SDS011;59230;54.164;-3.124;2023-12-14T12:33:00;83.25;;;11.70;;
47009;SDS011;59230;54.164;-3.124;2023-12-14T12:35:27;84.78;;;11.07;;
47009;SDS011;59230;54.164;-3.124;2023-12-14T12:37:56;63.63;;;10.25;;
47009;SDS011;59230;54.164;-3.124;2023-12-14T12:40:22;82.20;;;10.75;;
47009;SDS011;59230;54.164;-3.124;2023-12-14T12:42:52;64.90;;;8.70;;
47009;SDS011;59230;54.164;-3.124;2023-12-14T12:45:18;60.42;;;8.80;;
47009;SDS011;59230;54.164;-3.124;2023-12-14T12:47:45;65.47;;;7.65;;
47009;SDS011;59230;54.164;-3.124;2023-12-14T12:50:14;58.33;;;8.75;;
47009;SDS011;59230;54.164;-3.124;2023-12-14T12:52:44;57.72;;;8.18;;
47009;SDS011;59230;54.164;-3.124;2023-12-14T12:55:13;65.57;;;7.72;;
47009;SDS011;59230;54.164;-3.124;2023-12-14T12:57:40;56.72;;;8.40;;
47009;SDS011;59230;54.164;-3.124;2023-12-14T13:00:08;59.58;;;8.73;;
47009;SDS011;59230;54.164;-3.124;2023-12-14T13:02:37;61.75;;;8.18;;
47009;SDS011;59230;54.164;-3.124;2023-12-14T13:05:07;71.85;;;9.48;;
47009;SDS011;59230;54.164;-3.124;2023-12-14T13:07:34;68.88;;;9.93;;
47009;SDS011;59230;54.164;-3.124;2023-12-14T13:10:02;53.95;;;8.90;;
47009;SDS011;59230;54.164;-3.124;2023-12-14T13:12:31;69.22;;;8.88;;
47009;SDS011;59230;54.164;-3.124;2023-12-14T13:14:58;68.20;;;8.73;;
47009;SDS011;59230;54.164;-3.124;2023-12-14T13:17:25;59.38;;;8.48;;
47009;SDS011;59230;54.164;-3.124;2023-12-14T13:19:53;63.08;;;9.07;;
47009;SDS011;59230;54.164;-3.124;2023-12-14T13:22:19;65.65;;;9.05;;
47009;SDS011;59230;54.164;-3.124;2023-12-14T13:24:47;52.63;;;9.00;;
47009;SDS011;59230;54.164;-3.124;2023-12-14T13:27:15;54.63;;;8.60;;
47009;SDS011;59230;54.164;-3.124;2023-12-14T13:29:41;51.58;;;9.23;;
47009;SDS011;59230;54.164;-3.124;2023-12-14T13:32:07;57.90;;;8.73;;
47009;SDS011;59230;54.164;-3.124;2023-12-14T13:34:32;75.55;;;22.35;;
47009;SDS011;59230;54.164;-3.124;2023-12-14T13:37:00;71.55;;;21.67;;
47009;SDS011;59230;54.164;-3.124;2023-12-14T13:39:27;62.55;;;12.02;;
47009;SDS011;59230;54.164;-3.124;2023-12-14T13:41:53;52.35;;;8.40;;
47009;SDS011;59230;54.164;-3.124;2023-12-14T13:44:18;57.45;;;8.98;;
47009;SDS011;59230;54.164;-3.124;2023-12-14T13:46:44;60.50;;;8.05;;
47009;SDS011;59230;54.164;-3.124;2023-12-14T13:49:09;50.83;;;8.10;;
47009;SDS011;59230;54.164;-3.124;2023-12-14T13:51:36;51.72;;;7.05;;
47009;SDS011;59230;54.164;-3.124;2023-12-14T13:54:02;58.50;;;8.15;;
47009;SDS011;59230;54.164;-3.124;2023-12-14T13:56:28;59.55;;;9.02;;
47009;SDS011;59230;54.164;-3.124;2023-12-14T13:58:54;53.72;;;8.77;;
47009;SDS011;59230;54.164;-3.124;2023-12-14T14:01:19;49.92;;;9.23;;
47009;SDS011;59230;54.164;-3.124;2023-12-14T14:03:45;51.50;;;8.70;;
47009;SDS011;59230;54.164;-3.124;2023-12-14T14:06:12;51.20;;;6.50;;
47009;SDS011;59230;54.164;-3.124;2023-12-14T14:08:40;44.45;;;6.15;;
47009;SDS011;59230;54.164;-3.124;2023-12-14T14:11:06;48.10;;;7.05;;
47009;SDS011;59230;54.164;-3.124;2023-12-14T14:13:32;57.40;;;6.15;;
47009;SDS011;59230;54.164;-3.124;2023-12-14T14:16:00;49.17;;;6.55;;
47009;SDS011;59230;54.164;-3.124;2023-12-14T14:18:26;52.13;;;7.53;;
47009;SDS011;59230;54.164;-3.124;2023-12-14T14:20:53;45.80;;;6.97;;
47009;SDS011;59230;54.164;-3.124;2023-12-14T14:23:18;53.55;;;6.82;;
47009;SDS011;59230;54.164;-3.124;2023-12-14T14:25:45;43.05;;;6.07;;